Time;durP1;ratioP1;P1;durP2;ratioP2;P2;SDS_P1;SDS_P2;PMS_P1;PMS_P2;Temp;Humidity;BMP_temperature;BMP_pressure;BME280_temperature;BME280_humidity;BME280_pressure;Samples;Min_cycle;Max_cycle;Signal;HPM_P1;HPM_P2
2021/10/03 00:00:58;;;;;;;7.83;3.12;;;;;;;14.80;71.38;101869.88;1726216;82;21099;-64
2021/10/03 00:03:25;;;;;;;9.95;3.00;;;;;;;14.77;71.41;101865.48;1725189;81;21059;-62
2021/10/03 00:05:55;;;;;;;10.58;3.08;;;;;;;14.77;71.27;101868.19;1714089;82;21058;-63
2021/10/03 00:08:23;;;;;;;12.33;3.80;;;;;;;14.74;70.96;101873.70;1689955;83;21138;-64
2021/10/03 00:10:50;;;;;;;6.90;2.90;;;;;;;14.65;70.95;101876.21;1655616;84;20984;-62
2021/10/03 00:13:17;;;;;;;9.70;3.77;;;;;;;14.61;70.78;101874.08;1657232;86;21546;-63
2021/10/03 00:15:45;;;;;;;7.90;3.92;;;;;;;14.57;70.34;101873.77;1636443;86;21778;-62
2021/10/03 00:18:12;;;;;;;8.00;3.65;;;;;;;14.51;69.92;101869.94;1659382;84;21667;-64
2021/10/03 00:20:40;;;;;;;8.95;3.85;;;;;;;14.46;69.22;101874.58;1659299;86;21482;-63
2021/10/03 00:23:07;;;;;;;34.38;4.70;;;;;;;14.39;69.21;101867.64;1656636;85;21509;-63
2021/10/03 00:25:35;;;;;;;23.32;4.80;;;;;;;14.33;69.80;101865.56;1659668;86;21552;-63
2021/10/03 00:28:04;;;;;;;29.95;5.58;;;;;;;14.28;69.56;101867.54;1684060;83;21077;-64
2021/10/03 00:30:32;;;;;;;41.48;6.30;;;;;;;14.21;69.89;101867.78;1658730;84;21046;-64
2021/10/03 00:33:00;;;;;;;48.63;6.78;;;;;;;14.14;70.12;101861.70;1658794;86;21327;-63
2021/10/03 00:35:27;;;;;;;32.13;5.80;;;;;;;14.10;70.03;101865.44;1662984;86;21446;-63
2021/10/03 00:37:55;;;;;;;33.88;6.08;;;;;;;14.02;69.56;101861.14;1694544;84;21032;-63
2021/10/03 00:40:22;;;;;;;49.95;6.67;;;;;;;13.95;69.56;101862.77;1659122;86;21521;-63
2021/10/03 00:42:50;;;;;;;41.35;6.65;;;;;;;13.90;69.32;101860.20;1658593;84;21100;-63
2021/10/03 00:45:17;;;;;;;23.52;5.80;;;;;;;13.84;69.22;101861.27;1659258;84;21207;-63
2021/10/03 00:47:45;;;;;;;48.87;6.00;;;;;;;13.82;68.32;101871.70;1659406;84;21021;-61
2021/10/03 00:50:13;;;;;;;39.58;5.60;;;;;;;13.80;68.05;101866.34;1682830;83;21070;-61
2021/10/03 00:52:44;;;;;;;27.82;5.08;;;;;;;13.77;68.04;101873.18;1684637;83;21115;-60
2021/10/03 00:55:12;;;;;;;25.08;4.65;;;;;;;13.74;67.78;101868.75;1684103;83;21573;-61
2021/10/03 00:57:43;;;;;;;26.35;4.70;;;;;;;13.70;67.50;101862.14;1678803;83;21801;-60
2021/10/03 01:00:11;;;;;;;11.18;4.55;;;;;;;13.64;66.40;101872.67;1683906;83;21116;-61
2021/10/03 01:02:38;;;;;;;24.60;5.55;;;;;;;13.58;66.24;101867.00;1652894;84;21044;-61
2021/10/03 01:05:07;;;;;;;21.05;5.28;;;;;;;13.52;66.61;101862.25;1641179;86;21003;-63
2021/10/03 01:07:34;;;;;;;26.48;6.45;;;;;;;13.46;66.74;101865.55;1657993;86;21515;-61
2021/10/03 01:10:01;;;;;;;23.20;5.60;;;;;;;13.44;66.68;101870.55;1689907;83;21215;-61
2021/10/03 01:12:28;;;;;;;18.85;5.65;;;;;;;13.37;66.77;101867.11;1717969;83;21112;-62
2021/10/03 01:14:56;;;;;;;26.75;5.95;;;;;;;13.36;66.57;101866.69;1720632;83;21060;-60
2021/10/03 01:17:23;;;;;;;20.37;5.95;;;;;;;13.31;66.28;101861.91;1721902;83;21122;-61
2021/10/03 01:19:52;;;;;;;13.28;4.78;;;;;;;13.27;66.19;101865.62;1675646;84;21076;-61
2021/10/03 01:22:19;;;;;;;19.07;5.08;;;;;;;13.22;66.08;101863.53;1682317;84;21130;-60
2021/10/03 01:24:47;;;;;;;14.55;5.45;;;;;;;13.17;66.23;101860.52;1657380;86;21051;-61
2021/10/03 01:27:14;;;;;;;11.85;5.15;;;;;;;13.16;66.37;101861.44;1682392;83;21048;-62
2021/10/03 01:29:42;;;;;;;13.98;5.65;;;;;;;13.14;66.28;101859.22;1686402;83;21076;-60
2021/10/03 01:32:09;;;;;;;10.43;4.50;;;;;;;13.09;66.38;101851.75;1707768;83;21084;-60
2021/10/03 01:34:36;;;;;;;10.23;5.17;;;;;;;13.08;66.49;101859.41;1707625;82;21079;-61
2021/10/03 01:37:04;;;;;;;15.08;4.92;;;;;;;13.06;66.63;101859.91;1720551;83;21068;-61
2021/10/03 01:39:31;;;;;;;18.75;5.45;;;;;;;13.07;66.76;101868.89;1721689;83;21049;-62
2021/10/03 01:41:58;;;;;;;16.05;5.87;;;;;;;13.08;66.84;101863.45;1722279;83;21095;-63
2021/10/03 01:44:25;;;;;;;14.23;5.50;;;;;;;13.10;67.00;101868.80;1718965;83;21080;-61
2021/10/03 01:46:52;;;;;;;30.10;6.22;;;;;;;13.14;67.00;101871.34;1722213;83;21165;-62
2021/10/03 01:49:19;;;;;;;28.98;5.95;;;;;;;13.16;66.91;101872.21;1721474;83;21072;-62
2021/10/03 01:51:46;;;;;;;45.43;6.28;;;;;;;13.21;67.01;101872.54;1720877;83;21560;-62
2021/10/03 01:54:13;;;;;;;37.30;5.45;;;;;;;13.30;67.01;101863.73;1722954;83;21080;-61
2021/10/03 01:56:40;;;;;;;17.30;4.78;;;;;;;13.31;67.80;101865.95;1725315;83;21068;-60
2021/10/03 01:59:07;;;;;;;14.20;4.30;;;;;;;13.35;69.76;101861.37;1720994;83;21139;-59
2021/10/03 02:01:42;;;;;;;8.15;3.77;;;;;;;13.42;70.57;101857.11;1719913;83;21024;-60
2021/10/03 02:04:15;;;;;;;9.83;4.12;;;;;;;13.51;70.49;101861.38;1718879;83;21048;-63
2021/10/03 02:06:44;;;;;;;11.55;4.22;;;;;;;13.60;69.85;101854.84;1717053;83;21099;-62
2021/10/03 02:09:12;;;;;;;13.80;4.08;;;;;;;13.67;68.89;101876.62;1719007;82;21418;-62
2021/10/03 02:11:43;;;;;;;8.43;4.20;;;;;;;13.73;68.07;101869.69;1714049;82;21844;-61
2021/10/03 02:14:12;;;;;;;14.70;4.10;;;;;;;13.77;67.18;101869.59;1718228;83;21015;-61
2021/10/03 02:16:39;;;;;;;11.88;4.40;;;;;;;13.78;67.38;101864.61;1722476;82;21010;-62
2021/10/03 02:19:07;;;;;;;13.55;8.65;;;;;;;13.80;66.74;101866.80;1723109;82;21066;-63
2021/10/03 02:21:34;;;;;;;15.35;5.87;;;;;;;13.78;67.20;101860.57;1672858;84;21051;-62
2021/10/03 02:24:01;;;;;;;10.32;4.90;;;;;;;13.80;68.24;101866.80;1717639;83;21551;-62
2021/10/03 02:26:29;;;;;;;10.90;4.47;;;;;;;13.82;68.11;101867.17;1671688;83;21458;-60
2021/10/03 02:28:56;;;;;;;11.75;4.47;;;;;;;13.84;67.97;101860.41;1712059;83;21057;-62
2021/10/03 02:31:22;;;;;;;8.18;4.62;;;;;;;13.84;67.46;101859.05;1658553;85;21014;-61
2021/10/03 02:33:50;;;;;;;15.05;4.95;;;;;;;13.83;66.36;101855.95;1717528;81;21525;-61
2021/10/03 02:36:20;;;;;;;9.73;5.10;;;;;;;13.75;66.04;101865.61;1663635;84;39133;-62
2021/10/03 02:38:47;;;;;;;9.78;5.20;;;;;;;13.71;65.93;101866.64;1703112;83;21541;-62
2021/10/03 02:41:16;;;;;;;9.73;4.85;;;;;;;13.65;65.69;101860.96;1719050;83;21058;-61
2021/10/03 02:43:46;;;;;;;12.93;5.17;;;;;;;13.57;65.73;101864.33;1704622;83;21159;-61
2021/10/03 02:46:13;;;;;;;11.30;4.83;;;;;;;13.51;65.25;101866.77;1668666;84;21334;-64
2021/10/03 02:48:41;;;;;;;8.33;4.80;;;;;;;13.45;65.42;101855.70;1685236;84;21180;-65
2021/10/03 02:51:08;;;;;;;12.00;4.80;;;;;;;13.44;64.82;101856.63;1733992;81;21020;-60
2021/10/03 02:53:35;;;;;;;11.60;5.12;;;;;;;13.41;64.33;101856.69;1685415;84;21500;-62
2021/10/03 02:56:04;;;;;;;9.88;5.00;;;;;;;13.36;64.53;101854.57;1683917;84;21077;-61
2021/10/03 02:58:32;;;;;;;11.08;5.08;;;;;;;13.36;64.34;101860.44;1717219;83;20983;-61
2021/10/03 03:00:59;;;;;;;10.25;5.15;;;;;;;13.30;64.52;101858.80;1712465;83;22286;-64
2021/10/03 03:03:27;;;;;;;15.88;5.12;;;;;;;13.25;64.89;101868.83;1661606;85;21060;-62
2021/10/03 03:05:54;;;;;;;17.02;5.20;;;;;;;13.20;65.01;101869.42;1675288;83;21127;-64
2021/10/03 03:08:21;;;;;;;11.05;5.00;;;;;;;13.14;65.09;101883.94;1659294;85;21094;-62
2021/10/03 03:10:48;;;;;;;10.40;5.45;;;;;;;13.07;65.25;101866.20;1686988;83;21091;-62
2021/10/03 03:13:17;;;;;;;8.70;5.00;;;;;;;12.99;65.52;101863.71;1687880;84;22034;-64
2021/10/03 03:15:46;;;;;;;13.55;5.30;;;;;;;12.94;65.77;101860.27;1714021;83;21581;-62
2021/10/03 03:18:15;;;;;;;12.53;5.70;;;;;;;12.89;65.93;101880.09;1716747;83;21087;-62
2021/10/03 03:20:42;;;;;;;11.40;5.90;;;;;;;12.87;66.16;101860.41;1709518;83;21080;-63
2021/10/03 03:23:09;;;;;;;9.80;5.30;;;;;;;12.90;66.28;101867.53;1705581;83;21450;-62
2021/10/03 03:25:36;;;;;;;11.30;5.08;;;;;;;12.90;66.65;101864.84;1716368;83;21838;-63
2021/10/03 03:28:05;;;;;;;12.25;5.17;;;;;;;12.90;66.70;101854.94;1710032;83;21047;-62
2021/10/03 03:30:32;;;;;;;9.20;5.05;;;;;;;12.94;66.78;101861.61;1711498;83;21386;-62
2021/10/03 03:32:59;;;;;;;15.93;5.22;;;;;;;12.94;67.02;101876.42;1713665;83;21132;-61
2021/10/03 03:35:26;;;;;;;9.25;4.95;;;;;;;12.96;67.33;101857.07;1715070;83;21053;-63
2021/10/03 03:37:53;;;;;;;12.18;5.35;;;;;;;12.96;67.54;101858.42;1716781;83;21130;-63
2021/10/03 03:40:20;;;;;;;10.10;4.70;;;;;;;12.96;67.83;101871.88;1681534;84;21115;-63
2021/10/03 03:42:48;;;;;;;11.35;4.50;;;;;;;12.97;67.97;101858.84;1659222;84;21057;-61
2021/10/03 03:45:15;;;;;;;14.78;4.75;;;;;;;12.96;68.16;101863.32;1710473;83;20937;-62
2021/10/03 03:47:43;;;;;;;10.23;4.45;;;;;;;12.96;68.17;101874.56;1716847;83;21104;-62
2021/10/03 03:50:12;;;;;;;11.08;5.20;;;;;;;12.95;68.38;101864.73;1717110;83;21134;-62
2021/10/03 03:52:40;;;;;;;10.35;5.22;;;;;;;12.95;68.58;101875.49;1716347;81;21567;-62
2021/10/03 03:55:08;;;;;;;12.70;4.65;;;;;;;12.95;69.07;101876.84;1687786;83;21149;-62
2021/10/03 03:57:36;;;;;;;11.55;4.70;;;;;;;12.95;69.82;101880.87;1643175;86;21052;-62
2021/10/03 04:00:07;;;;;;;14.23;5.67;;;;;;;12.97;70.16;101869.12;1658993;86;21552;-63
2021/10/03 04:02:34;;;;;;;13.62;5.22;;;;;;;12.97;70.53;101856.14;1716857;83;21118;-64
2021/10/03 04:05:02;;;;;;;15.95;5.08;;;;;;;12.96;70.77;101871.88;1704887;83;21012;-64
2021/10/03 04:07:29;;;;;;;13.22;5.35;;;;;;;12.94;70.65;101881.80;1713072;83;21064;-64
2021/10/03 04:09:56;;;;;;;12.13;4.70;;;;;;;12.86;70.08;101877.48;1705988;82;21041;-62
2021/10/03 04:12:25;;;;;;;16.15;4.85;;;;;;;12.80;70.28;101874.97;1701895;84;21517;-62
2021/10/03 04:14:52;;;;;;;13.43;4.75;;;;;;;12.76;70.20;101867.91;1696219;84;21147;-61
2021/10/03 04:17:19;;;;;;;13.22;6.42;;;;;;;12.72;70.48;101863.53;1699278;84;21018;-62
2021/10/03 04:19:48;;;;;;;14.70;7.22;;;;;;;12.67;70.83;101860.95;1713382;83;21068;-62
2021/10/03 04:22:14;;;;;;;15.10;6.22;;;;;;;12.68;71.18;101863.16;1728415;81;21111;-62
2021/10/03 04:24:42;;;;;;;11.97;5.70;;;;;;;12.65;71.08;101872.66;1710579;83;21470;-61
2021/10/03 04:27:09;;;;;;;11.25;4.45;;;;;;;12.61;71.14;101867.37;1654610;86;21171;-61
2021/10/03 04:29:36;;;;;;;16.95;4.75;;;;;;;12.59;71.42;101860.25;1725012;83;21114;-61
2021/10/03 04:32:05;;;;;;;10.72;5.12;;;;;;;12.58;71.70;101870.14;1678675;84;21040;-64
2021/10/03 04:34:33;;;;;;;10.25;4.33;;;;;;;12.63;72.43;101881.24;1681515;84;21005;-63
2021/10/03 04:37:00;;;;;;;13.20;4.60;;;;;;;12.67;72.46;101876.20;1691035;84;21006;-62
2021/10/03 04:39:28;;;;;;;8.08;4.12;;;;;;;12.71;72.56;101883.27;1715305;83;21505;-63
2021/10/03 04:41:55;;;;;;;14.55;4.70;;;;;;;12.77;72.14;101881.78;1693213;84;21482;-61
2021/10/03 04:44:22;;;;;;;9.63;4.08;;;;;;;12.81;71.54;101879.87;1712695;83;21064;-62
2021/10/03 04:46:49;;;;;;;13.43;4.17;;;;;;;12.79;71.54;101894.73;1704687;83;21068;-64
2021/10/03 04:49:16;;;;;;;10.08;4.60;;;;;;;12.78;71.48;101899.70;1653201;86;21699;-63
2021/10/03 04:51:43;;;;;;;10.53;4.80;;;;;;;12.83;71.28;101896.89;1726022;83;21548;-61
2021/10/03 04:54:10;;;;;;;12.80;4.30;;;;;;;12.84;71.08;101882.03;1718429;83;21429;-64
2021/10/03 04:56:37;;;;;;;15.18;4.58;;;;;;;12.87;70.67;101891.84;1656202;85;21486;-62
2021/10/03 04:59:04;;;;;;;10.53;4.20;;;;;;;12.90;70.43;101900.70;1724094;83;21040;-63
2021/10/03 05:01:32;;;;;;;8.33;4.60;;;;;;;12.90;70.31;101884.55;1721191;83;21119;-64
2021/10/03 05:03:59;;;;;;;15.05;4.87;;;;;;;12.92;70.12;101890.35;1703882;83;21489;-62
2021/10/03 05:06:27;;;;;;;9.95;4.72;;;;;;;12.95;69.52;101897.03;1687039;84;21029;-64
2021/10/03 05:08:54;;;;;;;9.83;4.47;;;;;;;12.94;69.47;101906.03;1709476;81;21033;-64
2021/10/03 05:11:22;;;;;;;15.05;4.92;;;;;;;12.97;69.86;101897.87;1695150;84;21020;-63
2021/10/03 05:13:49;;;;;;;12.45;4.70;;;;;;;12.99;69.72;101912.17;1719428;82;21072;-63
2021/10/03 05:16:17;;;;;;;14.87;4.80;;;;;;;12.98;69.59;101913.09;1731659;82;22027;-61
2021/10/03 05:18:44;;;;;;;11.55;5.00;;;;;;;13.00;69.71;101911.23;1734887;82;21076;-62
2021/10/03 05:21:11;;;;;;;11.48;4.97;;;;;;;13.01;70.05;101904.93;1726034;81;21099;-61
2021/10/03 05:23:39;;;;;;;12.28;4.50;;;;;;;13.01;70.45;101913.00;1715693;83;21573;-62
2021/10/03 05:26:06;;;;;;;10.43;4.42;;;;;;;12.98;71.25;101915.78;1730169;82;21035;-62
2021/10/03 05:28:33;;;;;;;9.18;4.40;;;;;;;12.98;71.04;101915.78;1718764;82;21516;-62
2021/10/03 05:31:01;;;;;;;8.68;4.28;;;;;;;12.99;71.18;101917.55;1734018;82;21028;-63
2021/10/03 05:33:29;;;;;;;8.95;4.47;;;;;;;13.00;71.37;101912.59;1728019;81;21046;-64
2021/10/03 05:35:56;;;;;;;8.98;3.67;;;;;;;13.06;71.19;101935.30;1685287;84;21093;-63
2021/10/03 05:38:23;;;;;;;10.98;3.90;;;;;;;13.02;71.25;101928.23;1669762;85;21144;-63
2021/10/03 05:40:50;;;;;;;11.10;3.90;;;;;;;12.99;71.82;101914.86;1687317;84;21240;-64
2021/10/03 05:43:18;;;;;;;12.68;4.08;;;;;;;13.00;72.31;101924.70;1691933;84;21125;-62
2021/10/03 05:45:45;;;;;;;7.83;4.08;;;;;;;13.02;72.04;101920.16;1713511;82;21124;-63
2021/10/03 05:48:12;;;;;;;7.55;4.10;;;;;;;13.03;71.76;101917.41;1713409;83;21111;-64
2021/10/03 05:50:39;;;;;;;10.32;4.17;;;;;;;13.06;71.85;101948.76;1706722;83;21072;-62
2021/10/03 05:53:08;;;;;;;12.07;4.20;;;;;;;13.14;71.17;101934.62;1711858;83;21461;-63
2021/10/03 05:55:37;;;;;;;12.80;4.30;;;;;;;13.17;70.99;101935.91;1714552;83;21084;-63
2021/10/03 05:58:04;;;;;;;12.58;5.03;;;;;;;13.18;71.54;101943.06;1710516;83;21546;-64
2021/10/03 06:00:31;;;;;;;12.18;4.55;;;;;;;13.25;70.92;101949.14;1691857;84;21586;-64
2021/10/03 06:02:59;;;;;;;8.95;4.80;;;;;;;13.36;71.09;101939.42;1714609;83;21079;-64
2021/10/03 06:05:26;;;;;;;10.08;4.15;;;;;;;13.51;70.86;101946.70;1704266;83;21530;-64
2021/10/03 06:07:53;;;;;;;8.88;4.42;;;;;;;13.62;70.42;101951.33;1660970;84;21533;-64
2021/10/03 06:10:20;;;;;;;9.48;4.83;;;;;;;13.70;69.03;101960.52;1722106;81;21473;-63
2021/10/03 06:12:47;;;;;;;7.92;4.60;;;;;;;13.68;68.90;101971.36;1717922;83;21492;-61
2021/10/03 06:15:16;;;;;;;8.20;4.03;;;;;;;13.62;68.72;101955.37;1709764;83;21095;-63
2021/10/03 06:17:45;;;;;;;11.35;4.62;;;;;;;13.58;69.60;101969.84;1719484;83;21084;-64
2021/10/03 06:20:12;;;;;;;9.38;4.12;;;;;;;13.62;69.59;101982.33;1718756;83;21465;-64
2021/10/03 06:22:46;;;;;;;12.95;4.72;;;;;;;13.69;69.37;101961.45;1702687;83;21080;-62
2021/10/03 06:25:14;;;;;;;14.55;4.47;;;;;;;13.74;69.32;101965.78;1695360;84;21439;-61
2021/10/03 06:27:41;;;;;;;11.15;4.47;;;;;;;13.85;69.05;101967.30;1714939;83;21017;-60
2021/10/03 06:30:09;;;;;;;11.75;4.72;;;;;;;13.97;68.84;101964.70;1715679;83;22575;-63
2021/10/03 06:32:38;;;;;;;11.10;4.80;;;;;;;14.06;68.38;101978.38;1699213;83;21538;-62
2021/10/03 06:35:06;;;;;;;9.58;4.62;;;;;;;14.02;68.63;101960.91;1703439;83;21048;-61
2021/10/03 06:37:34;;;;;;;7.97;4.62;;;;;;;14.03;69.33;101966.73;1693571;84;21168;-62
2021/10/03 06:40:01;;;;;;;11.90;4.35;;;;;;;14.13;69.27;101966.47;1710294;83;21595;-63
2021/10/03 06:42:29;;;;;;;10.23;4.70;;;;;;;14.19;68.70;101979.75;1699008;84;21478;-61
2021/10/03 06:44:56;;;;;;;11.12;4.80;;;;;;;14.18;68.78;101964.50;1697494;84;21469;-62
2021/10/03 06:47:25;;;;;;;11.35;4.87;;;;;;;14.21;69.01;101978.38;1713781;83;21520;-61
2021/10/03 06:49:52;;;;;;;9.83;4.83;;;;;;;14.30;68.55;101981.67;1713343;83;21107;-64
2021/10/03 06:52:19;;;;;;;13.08;4.97;;;;;;;14.30;68.46;101976.27;1653593;86;21108;-64
2021/10/03 06:54:46;;;;;;;9.40;4.45;;;;;;;14.27;68.83;101980.42;1643122;86;22151;-63
2021/10/03 06:57:13;;;;;;;9.03;4.67;;;;;;;14.26;68.63;101981.35;1721214;83;21095;-63
2021/10/03 06:59:41;;;;;;;12.88;4.80;;;;;;;14.24;68.74;101994.46;1681862;84;21080;-64
2021/10/03 07:02:18;;;;;;;10.68;4.92;;;;;;;14.19;68.95;101979.75;1705824;83;21017;-65
2021/10/03 07:04:46;;;;;;;10.93;4.78;;;;;;;14.18;69.52;101961.80;1692665;84;21502;-63
2021/10/03 07:07:13;;;;;;;11.33;4.55;;;;;;;14.26;69.19;101977.31;1705148;83;21799;-64
2021/10/03 07:09:40;;;;;;;11.45;4.80;;;;;;;14.28;69.21;101977.24;1700449;83;21005;-64
2021/10/03 07:12:07;;;;;;;10.78;4.80;;;;;;;14.31;69.85;101983.44;1701689;84;21069;-64
2021/10/03 07:14:34;;;;;;;10.72;4.65;;;;;;;14.36;69.61;101977.01;1692085;84;21152;-64
2021/10/03 07:17:01;;;;;;;11.18;4.67;;;;;;;14.40;69.83;101989.47;1699455;84;21061;-62
2021/10/03 07:19:28;;;;;;;15.18;4.50;;;;;;;14.39;69.44;101983.66;1716189;82;21188;-63
2021/10/03 07:21:57;;;;;;;14.70;4.75;;;;;;;14.36;69.54;101981.05;1689920;84;20995;-64
2021/10/03 07:24:24;;;;;;;11.22;4.47;;;;;;;14.39;69.49;101972.86;1694228;84;20947;-63
2021/10/03 07:26:51;;;;;;;9.28;4.62;;;;;;;14.39;69.54;101978.25;1688981;84;21033;-62
2021/10/03 07:29:18;;;;;;;12.50;4.95;;;;;;;14.35;69.39;101980.64;1697576;84;21124;-64
2021/10/03 07:31:46;;;;;;;9.00;4.65;;;;;;;14.34;69.65;101978.39;1703786;83;21092;-63
2021/10/03 07:34:13;;;;;;;10.98;4.80;;;;;;;14.36;69.86;101984.62;1716016;83;20985;-63
2021/10/03 07:36:40;;;;;;;13.75;4.90;;;;;;;14.36;69.60;101976.52;1679924;83;21499;-64
2021/10/03 07:39:07;;;;;;;13.58;4.75;;;;;;;14.43;69.18;101982.17;1700614;84;21511;-63
2021/10/03 07:41:34;;;;;;;12.70;5.00;;;;;;;14.45;69.48;101978.05;1703792;84;21100;-63
2021/10/03 07:44:01;;;;;;;12.75;4.72;;;;;;;14.45;69.33;101987.05;1699176;83;21774;-64
2021/10/03 07:46:28;;;;;;;12.47;4.67;;;;;;;14.44;69.13;101983.03;1711733;83;21052;-63
2021/10/03 07:48:56;;;;;;;10.95;4.25;;;;;;;14.49;69.44;101978.85;1699674;84;22119;-63
2021/10/03 07:51:22;;;;;;;12.00;5.28;;;;;;;14.54;68.68;101976.88;1711984;83;21134;-64
2021/10/03 07:53:50;;;;;;;11.70;5.05;;;;;;;14.54;69.17;101984.52;1698553;84;21030;-63
2021/10/03 07:56:17;;;;;;;12.58;4.30;;;;;;;14.52;68.96;101989.09;1696235;84;21162;-63
2021/10/03 07:58:44;;;;;;;9.30;4.22;;;;;;;14.51;69.42;102000.81;1714942;82;21021;-62
2021/10/03 08:01:11;;;;;;;13.45;5.40;;;;;;;14.56;69.35;101982.66;1701363;83;21061;-63
2021/10/03 08:03:39;;;;;;;10.65;4.87;;;;;;;14.60;69.28;101980.75;1715424;83;21025;-64
2021/10/03 08:06:06;;;;;;;14.05;4.72;;;;;;;14.60;69.41;102015.36;1688818;83;21120;-64
2021/10/03 08:08:34;;;;;;;11.45;4.55;;;;;;;14.59;68.87;101986.60;1713949;83;21229;-62
2021/10/03 08:11:01;;;;;;;12.95;4.45;;;;;;;14.56;69.38;101990.75;1700162;83;21043;-63
2021/10/03 08:13:29;;;;;;;9.33;4.10;;;;;;;14.64;69.69;101985.56;1695786;83;21011;-62
2021/10/03 08:15:56;;;;;;;12.80;4.65;;;;;;;14.66;69.15;101995.39;1680880;83;21059;-63
2021/10/03 08:18:23;;;;;;;11.38;4.28;;;;;;;14.64;69.32;101982.86;1685138;84;21068;-64
2021/10/03 08:20:51;;;;;;;17.50;4.65;;;;;;;14.70;69.64;101978.61;1720617;83;21141;-62
2021/10/03 08:23:19;;;;;;;11.65;5.15;;;;;;;14.79;69.54;101989.16;1719245;83;21637;-62
2021/10/03 08:25:47;;;;;;;16.00;4.70;;;;;;;14.81;69.18;101985.94;1729406;81;21091;-62
2021/10/03 08:28:14;;;;;;;14.65;4.47;;;;;;;14.80;68.50;101994.97;1685434;83;21029;-63
2021/10/03 08:30:41;;;;;;;11.55;4.72;;;;;;;14.81;68.60;101986.38;1688200;83;21443;-63
2021/10/03 08:33:08;;;;;;;7.62;3.98;;;;;;;14.77;68.08;101988.33;1685852;83;21814;-62
2021/10/03 08:35:35;;;;;;;11.60;4.30;;;;;;;14.68;68.21;101987.22;1708918;83;21031;-62
2021/10/03 08:38:03;;;;;;;9.48;4.08;;;;;;;14.64;68.10;102007.16;1708859;83;20952;-64
2021/10/03 08:40:29;;;;;;;9.55;4.10;;;;;;;14.63;68.50;101981.09;1718685;83;21034;-62
2021/10/03 08:42:56;;;;;;;9.68;4.42;;;;;;;14.64;68.21;102004.45;1680667;85;21039;-63
2021/10/03 08:45:23;;;;;;;9.58;4.17;;;;;;;14.59;67.66;101986.60;1678829;85;21493;-62
2021/10/03 08:47:51;;;;;;;13.35;4.25;;;;;;;14.58;67.94;101968.64;1684209;85;21093;-62
2021/10/03 08:50:18;;;;;;;8.98;4.30;;;;;;;14.66;68.43;101983.70;1676527;83;21415;-63
2021/10/03 08:52:46;;;;;;;10.55;3.83;;;;;;;14.70;67.22;101972.75;1693145;83;21038;-64
2021/10/03 08:55:15;;;;;;;9.65;4.12;;;;;;;14.68;66.56;101983.17;1679095;83;21102;-63
2021/10/03 08:57:42;;;;;;;18.40;4.47;;;;;;;14.66;66.76;101985.05;1710081;83;21108;-63
2021/10/03 09:00:19;;;;;;;9.78;4.15;;;;;;;14.63;67.44;101983.80;1701519;83;21067;-61
2021/10/03 09:03:04;;;;;;;11.48;3.90;;;;;;;14.65;67.56;101999.02;1707712;83;21517;-62
2021/10/03 09:05:42;;;;;;;9.50;4.05;;;;;;;14.74;66.65;101985.25;1709946;83;21511;-64
2021/10/03 09:08:21;;;;;;;13.62;4.45;;;;;;;14.79;65.97;101971.61;1709082;83;21012;-62
2021/10/03 09:11:04;;;;;;;11.10;4.15;;;;;;;14.87;65.77;101988.42;1685702;83;21065;-61
2021/10/03 09:13:37;;;;;;;9.63;3.95;;;;;;;14.94;64.76;101967.98;1687991;83;21076;-62
2021/10/03 09:16:15;;;;;;;11.80;3.55;;;;;;;14.94;64.69;101974.25;1698410;84;21032;-63
2021/10/03 09:18:47;;;;;;;8.68;4.33;;;;;;;14.99;64.38;101974.11;1732898;82;21076;-63
2021/10/03 09:21:40;;;;;;;9.33;4.10;;;;;;;15.02;63.99;101978.05;1699897;84;21497;-62
2021/10/03 09:24:14;;;;;;;16.05;4.65;;;;;;;15.03;63.82;101967.20;1728191;81;21720;-64
2021/10/03 09:27:03;;;;;;;11.57;4.05;;;;;;;15.15;63.88;101974.00;1726628;82;21107;-62
2021/10/03 09:29:33;;;;;;;9.53;4.22;;;;;;;15.22;63.45;101977.83;1737099;82;21633;-61
2021/10/03 09:32:17;;;;;;;8.70;4.35;;;;;;;15.20;63.46;101981.05;1729064;82;21028;-62
2021/10/03 09:34:49;;;;;;;14.90;4.50;;;;;;;15.21;63.94;101982.81;1723619;82;21612;-62
2021/10/03 09:37:23;;;;;;;9.78;4.37;;;;;;;15.23;63.50;101982.30;1730450;82;21193;-61
2021/10/03 09:40:04;;;;;;;13.18;4.62;;;;;;;15.28;63.78;101985.70;1659723;85;21111;-62
2021/10/03 09:42:32;;;;;;;14.20;4.40;;;;;;;15.37;63.17;101973.24;1696357;83;21005;-63
2021/10/03 09:45:14;;;;;;;7.15;4.22;;;;;;;15.41;62.88;101978.05;1687679;83;21076;-62
2021/10/03 09:47:44;;;;;;;13.53;4.85;;;;;;;15.41;62.29;101975.34;1698066;82;22860;-61
2021/10/03 09:50:14;;;;;;;7.28;3.90;;;;;;;15.45;62.35;101973.84;1699572;84;21954;-63
2021/10/03 09:52:41;;;;;;;11.45;4.30;;;;;;;15.50;62.68;101964.67;1735028;81;21020;-61
2021/10/03 09:55:13;;;;;;;12.35;4.55;;;;;;;15.53;61.81;101960.50;1722644;82;21462;-63
2021/10/03 09:57:41;;;;;;;8.30;3.98;;;;;;;15.59;61.47;101967.06;1724740;82;21047;-62
2021/10/03 10:00:10;;;;;;;8.83;4.03;;;;;;;15.65;60.66;101963.22;1727364;82;21561;-62
2021/10/03 10:02:38;;;;;;;14.00;4.55;;;;;;;15.59;60.94;101965.70;1732871;82;21459;-62
2021/10/03 10:05:07;;;;;;;13.48;4.45;;;;;;;15.54;61.22;101964.52;1730893;82;21530;-61
2021/10/03 10:07:35;;;;;;;9.48;4.30;;;;;;;15.56;61.36;101960.38;1733082;82;21060;-60
2021/10/03 10:10:04;;;;;;;9.55;4.47;;;;;;;15.56;61.54;101950.92;1731853;82;21636;-60
2021/10/03 10:12:34;;;;;;;12.53;4.72;;;;;;;15.60;61.62;101953.95;1717091;82;21524;-61
2021/10/03 10:15:04;;;;;;;9.78;4.70;;;;;;;15.62;60.65;101956.13;1655717;85;21150;-61
2021/10/03 10:17:40;;;;;;;14.05;4.60;;;;;;;15.54;61.01;101947.40;1720854;83;21013;-60
2021/10/03 10:20:24;;;;;;;10.65;4.25;;;;;;;15.48;60.96;101957.99;1716705;83;21554;-62
2021/10/03 10:23:01;;;;;;;11.35;4.40;;;;;;;15.44;61.02;101947.75;1696733;83;21022;-63
2021/10/03 10:25:49;;;;;;;11.43;4.25;;;;;;;15.42;61.79;101955.03;1696806;84;20956;-63
2021/10/03 10:28:32;;;;;;;9.68;3.72;;;;;;;15.47;62.34;101953.03;1681032;83;22013;-63
2021/10/03 10:31:10;;;;;;;9.78;4.00;;;;;;;15.53;61.78;101945.18;1682527;83;21140;-60
2021/10/03 10:33:57;;;;;;;10.60;4.15;;;;;;;15.54;61.28;101941.99;1682261;83;21144;-62
2021/10/03 10:36:28;;;;;;;11.03;4.70;;;;;;;15.59;61.19;101938.67;1712423;82;21111;-61
2021/10/03 10:39:14;;;;;;;10.55;3.98;;;;;;;15.66;60.77;101941.55;1714823;82;21143;-63
2021/10/03 10:41:49;;;;;;;7.87;4.03;;;;;;;15.68;59.43;101939.67;1684134;83;21048;-63
2021/10/03 10:44:28;;;;;;;6.08;3.87;;;;;;;15.69;59.43;101940.08;1699036;83;21049;-62
2021/10/03 10:46:59;;;;;;;9.45;3.80;;;;;;;15.69;59.46;101931.97;1697615;83;21045;-60
2021/10/03 10:49:31;;;;;;;11.70;3.92;;;;;;;15.69;60.25;101937.38;1707721;83;21069;-61
2021/10/03 10:52:24;;;;;;;10.05;4.30;;;;;;;15.76;59.98;101936.67;1698653;83;21660;-64
2021/10/03 10:55:11;;;;;;;6.60;3.37;;;;;;;15.80;59.52;101924.80;1689269;84;21152;-60
2021/10/03 10:57:57;;;;;;;8.55;3.85;;;;;;;15.82;60.13;101916.64;1702520;82;21211;-63
2021/10/03 11:00:26;;;;;;;9.55;4.08;;;;;;;15.90;60.58;101928.93;1719116;83;21565;-62
2021/10/03 11:03:05;;;;;;;10.60;3.72;;;;;;;15.90;60.73;101922.66;1697132;84;22162;-63
2021/10/03 11:05:44;;;;;;;7.83;3.55;;;;;;;15.91;60.11;101923.06;1685999;83;21179;-63
2021/10/03 11:08:17;;;;;;;9.80;3.50;;;;;;;15.96;59.22;101927.81;1695537;83;22125;-63
2021/10/03 11:11:09;;;;;;;11.10;3.60;;;;;;;15.93;59.25;101925.23;1695877;83;21033;-63
2021/10/03 11:13:45;;;;;;;15.10;4.00;;;;;;;15.88;59.49;101925.41;1696811;83;21456;-63
2021/10/03 11:16:30;;;;;;;14.73;3.87;;;;;;;15.91;59.71;101920.36;1688718;83;21533;-62
2021/10/03 11:19:14;;;;;;;9.63;3.77;;;;;;;15.95;59.88;101920.64;1661066;85;21539;-63
2021/10/03 11:21:51;;;;;;;7.17;3.40;;;;;;;15.98;59.54;101915.11;1651033;85;21818;-63
2021/10/03 11:24:24;;;;;;;8.25;3.55;;;;;;;16.02;59.19;101922.16;1693380;83;21061;-62
2021/10/03 11:27:01;;;;;;;14.05;3.55;;;;;;;16.00;58.96;101916.41;1696912;83;21156;-62
2021/10/03 11:29:31;;;;;;;7.60;3.45;;;;;;;15.96;58.79;101921.05;1694743;83;21064;-62